Terminal Aerodrome Forecast
Issued by NWS

Home | Current Version | Previous Version | Text Only | Print | Product List | Glossary On
Versions: 1 2 3 4 5 6 7 8 9 10 11 12
000
FTUS42 KTAE 281721
TAFDHN
TAF
KDHN 281721Z 2818/2918 10008KT P6SM SCT035 SCT050
     FM282100 11008KT 5SM TSRA BKN025CB BKN050
     FM282300 11007KT P6SM SCT025 BKN080
     FM291400 14006KT P6SM VCSH SCT025 BKN050=

USA.gov is the U.S. government's official web portal to all federal, state and local government web resources and services.